createdAt,value
2022-11-14T00:04:01.231Z,0
2022-11-14T00:06:27.822Z,0
2022-11-14T00:08:54.378Z,0
2022-11-14T00:11:21.057Z,0
2022-11-14T00:13:47.591Z,0
2022-11-14T00:16:12.694Z,0
2022-11-14T00:18:39.347Z,0
2022-11-14T00:21:06.021Z,0
2022-11-14T00:23:32.649Z,0
2022-11-14T00:28:25.813Z,0
2022-11-14T00:30:52.484Z,0
2022-11-14T00:33:19.067Z,0
2022-11-14T00:35:45.686Z,0
2022-11-14T00:38:12.312Z,0
2022-11-14T00:40:38.936Z,0
2022-11-14T00:43:05.557Z,0
2022-11-14T00:45:32.159Z,0
2022-11-14T00:47:57.473Z,0
2022-11-14T00:52:50.585Z,0
2022-11-14T00:55:17.201Z,0
2022-11-14T00:57:43.804Z,0
2022-11-14T01:00:10.469Z,0
2022-11-14T01:02:37.034Z,0
2022-11-14T01:05:03.659Z,0
2022-11-14T01:07:30.365Z,0
2022-11-14T01:09:56.922Z,0
2022-11-14T01:12:23.530Z,0
2022-11-14T01:17:16.917Z,0
2022-11-14T01:19:41.989Z,0
2022-11-14T01:22:08.551Z,0
2022-11-14T01:24:35.176Z,0
2022-11-14T01:27:01.972Z,0
2022-11-14T01:29:28.432Z,0
2022-11-14T01:31:55.034Z,0
2022-11-14T01:34:21.678Z,0
2022-11-14T01:36:48.290Z,0
2022-11-14T01:41:41.588Z,0
2022-11-14T01:44:08.138Z,0
2022-11-14T01:46:34.833Z,0
2022-11-14T01:49:01.388Z,0
2022-11-14T01:51:26.511Z,0
2022-11-14T01:53:53.237Z,0
2022-11-14T01:56:19.751Z,0
2022-11-14T01:58:46.489Z,0
2022-11-14T02:01:13.030Z,0
2022-11-14T02:06:06.257Z,0
2022-11-14T02:08:32.866Z,0
2022-11-14T02:10:59.541Z,0
2022-11-14T02:13:26.119Z,0
2022-11-14T02:15:52.809Z,0
2022-11-14T02:18:19.358Z,0
2022-11-14T02:20:46.003Z,0
2022-11-14T02:23:11.119Z,0
2022-11-14T02:25:37.738Z,0
2022-11-14T02:30:31.046Z,0
2022-11-14T02:32:57.684Z,0
2022-11-14T02:35:24.218Z,0
2022-11-14T02:37:50.856Z,0
2022-11-14T02:40:17.478Z,0
2022-11-14T02:42:44.123Z,0
2022-11-14T02:45:10.748Z,0
2022-11-14T02:47:37.338Z,0
2022-11-14T02:50:03.965Z,0
2022-11-14T02:52:30.604Z,0
2022-11-14T02:54:55.770Z,0
2022-11-14T02:57:20.859Z,0
2022-11-14T02:59:45.995Z,0
2022-11-14T03:02:12.625Z,0
2022-11-14T03:04:39.316Z,0
2022-11-14T03:07:05.915Z,0
2022-11-14T03:09:32.483Z,0
2022-11-14T03:11:59.118Z,0
2022-11-14T03:14:25.726Z,0
2022-11-14T03:19:19.008Z,0
2022-11-14T03:21:45.686Z,0
2022-11-14T03:24:12.281Z,0
2022-11-14T03:26:38.849Z,0
2022-11-14T03:29:05.455Z,0
2022-11-14T03:31:30.603Z,0
2022-11-14T03:33:57.256Z,0
2022-11-14T03:36:23.865Z,0
2022-11-14T03:38:50.475Z,0
2022-11-14T03:43:43.841Z,0
2022-11-14T03:46:08.845Z,0
2022-11-14T03:48:33.969Z,0
2022-11-14T03:51:00.598Z,0
2022-11-14T03:53:27.236Z,0
2022-11-14T03:55:53.839Z,0
2022-11-14T03:58:20.464Z,0
2022-11-14T04:00:47.134Z,0
2022-11-14T04:03:13.711Z,0
2022-11-14T04:08:06.967Z,0
2022-11-14T04:10:33.601Z,0
2022-11-14T04:13:00.230Z,0
2022-11-14T04:15:26.941Z,0
2022-11-14T04:17:53.454Z,0
2022-11-14T04:20:18.596Z,0
2022-11-14T04:22:45.257Z,0
2022-11-14T04:25:11.869Z,0
2022-11-14T04:27:38.473Z,0
2022-11-14T04:32:31.805Z,0
2022-11-14T04:34:58.327Z,0
2022-11-14T04:37:25.004Z,0
2022-11-14T04:39:51.591Z,0
2022-11-14T04:42:18.263Z,0
2022-11-14T04:44:44.839Z,0
2022-11-14T04:47:11.452Z,0
2022-11-14T04:49:38.093Z,0
2022-11-14T04:52:03.213Z,0
2022-11-14T04:56:56.517Z,0
2022-11-14T04:59:23.067Z,0
2022-11-14T05:01:49.696Z,0
2022-11-14T05:04:16.334Z,0
2022-11-14T05:06:43.044Z,0
2022-11-14T05:09:09.646Z,0
2022-11-14T05:11:36.196Z,0
2022-11-14T05:14:02.829Z,0
2022-11-14T05:16:29.470Z,0
2022-11-14T05:21:22.744Z,0
2022-11-14T05:23:47.825Z,0
2022-11-14T05:26:14.486Z,0
2022-11-14T05:28:41.071Z,0
2022-11-14T05:31:07.824Z,0
2022-11-14T05:33:34.340Z,0
2022-11-14T05:36:00.940Z,0
2022-11-14T05:38:27.566Z,0
2022-11-14T05:40:54.212Z,0
2022-11-14T05:45:47.448Z,0
2022-11-14T05:48:14.065Z,0
2022-11-14T05:50:40.694Z,0
2022-11-14T05:53:07.321Z,0
2022-11-14T05:55:32.447Z,0
2022-11-14T05:57:59.125Z,0
2022-11-14T06:00:25.684Z,0
2022-11-14T06:02:52.310Z,4
2022-11-14T06:05:18.936Z,4
2022-11-14T06:10:12.256Z,8
2022-11-14T06:12:38.823Z,12
2022-11-14T06:15:05.438Z,12
2022-11-14T06:17:32.064Z,20
2022-11-14T06:19:58.685Z,32
2022-11-14T06:22:25.325Z,44
2022-11-14T06:24:51.978Z,60
2022-11-14T06:27:17.054Z,72
2022-11-14T06:29:43.690Z,96
2022-11-14T06:34:36.966Z,180
2022-11-14T06:37:03.659Z,228
2022-11-14T06:39:30.281Z,240
2022-11-14T06:41:56.885Z,269
2022-11-14T06:44:23.478Z,321
2022-11-14T06:46:50.110Z,401
2022-11-14T06:49:16.695Z,469
2022-11-14T06:51:41.834Z,562
2022-11-14T06:54:08.452Z,630
2022-11-14T06:59:01.739Z,847
2022-11-14T07:01:28.491Z,935
2022-11-14T07:03:55.160Z,991
2022-11-14T07:06:21.661Z,1128
2022-11-14T07:08:48.335Z,1132
2022-11-14T07:11:14.825Z,1353
2022-11-14T07:13:41.443Z,1341
2022-11-14T07:16:08.139Z,1497
2022-11-14T07:18:34.686Z,1851
2022-11-14T07:21:01.292Z,1662
2022-11-14T07:23:26.431Z,1461
2022-11-14T07:28:18.208Z,975
2022-11-14T07:30:43.316Z,1011
2022-11-14T07:33:10.015Z,1116
2022-11-14T07:35:36.621Z,1256
2022-11-14T07:38:03.212Z,1461
2022-11-14T07:40:29.806Z,1638
2022-11-14T07:42:56.438Z,1919
2022-11-14T07:45:23.103Z,2064
2022-11-14T07:47:49.674Z,2035
2022-11-14T07:50:14.811Z,1899
2022-11-14T07:52:41.443Z,1730
2022-11-14T07:55:06.632Z,1493
2022-11-14T07:57:33.278Z,1341
2022-11-14T07:59:59.811Z,1136
2022-11-14T08:02:26.448Z,1019
2022-11-14T08:04:53.205Z,1092
2022-11-14T08:07:19.874Z,1272
2022-11-14T08:12:13.027Z,1465
2022-11-14T08:17:06.379Z,2027
2022-11-14T08:19:32.811Z,2738
2022-11-14T08:21:58.029Z,4083
2022-11-14T08:24:23.067Z,12946
2022-11-14T08:26:49.765Z,12063
2022-11-14T08:29:16.312Z,10179
2022-11-14T08:31:43.113Z,3192
2022-11-14T08:36:36.366Z,2513
2022-11-14T08:41:29.447Z,3152
2022-11-14T08:43:56.052Z,3373
2022-11-14T08:46:22.710Z,3353
2022-11-14T08:48:49.454Z,3027
2022-11-14T08:51:15.932Z,2549
2022-11-14T08:53:42.551Z,2039
2022-11-14T08:56:07.671Z,1738
2022-11-14T09:01:01.095Z,1501
2022-11-14T09:05:54.160Z,1236
2022-11-14T09:08:20.802Z,819
2022-11-14T09:10:47.407Z,746
2022-11-14T09:13:14.032Z,762
2022-11-14T09:15:40.680Z,859
2022-11-14T09:18:07.296Z,847
2022-11-14T09:20:33.912Z,754
2022-11-14T09:23:00.608Z,590
2022-11-14T09:25:27.357Z,546
2022-11-14T09:27:52.369Z,534
2022-11-14T09:30:18.927Z,562
2022-11-14T09:32:45.528Z,634
2022-11-14T09:35:12.174Z,714
2022-11-14T09:37:38.852Z,662
2022-11-14T09:40:05.505Z,646
2022-11-14T09:42:32.020Z,678
2022-11-14T09:44:58.810Z,646
2022-11-14T09:47:25.266Z,582
2022-11-14T09:49:51.898Z,606
2022-11-14T09:52:17.031Z,698
2022-11-14T09:54:42.159Z,907
2022-11-14T09:57:08.777Z,1032
2022-11-14T09:59:35.424Z,1268
2022-11-14T10:02:02.012Z,1505
2022-11-14T10:04:28.642Z,1831
2022-11-14T10:06:55.272Z,2144
2022-11-14T10:09:21.899Z,2023
2022-11-14T10:11:48.518Z,1582
2022-11-14T10:14:15.135Z,1726
2022-11-14T10:16:41.896Z,1674
2022-11-14T10:19:06.900Z,1883
2022-11-14T10:21:32.030Z,1963
2022-11-14T10:23:58.642Z,1654
2022-11-14T10:26:25.277Z,1421
2022-11-14T10:28:51.908Z,1546
2022-11-14T10:31:18.534Z,2305
2022-11-14T10:33:45.138Z,3465
2022-11-14T10:36:11.778Z,4369
2022-11-14T10:38:38.393Z,3698
2022-11-14T10:41:05.005Z,3863
2022-11-14T10:43:31.647Z,3529
2022-11-14T10:45:58.261Z,2706
2022-11-14T10:48:24.877Z,2863
2022-11-14T10:50:51.508Z,2598
2022-11-14T10:53:16.631Z,3381
2022-11-14T10:55:43.259Z,3140
2022-11-14T10:58:09.884Z,2405
2022-11-14T11:00:36.513Z,1509
2022-11-14T11:03:03.123Z,1048
2022-11-14T11:05:29.747Z,831
2022-11-14T11:07:56.369Z,1268
2022-11-14T11:10:22.993Z,1634
2022-11-14T11:12:49.692Z,1799
2022-11-14T11:15:16.343Z,1457
2022-11-14T11:17:42.875Z,1256
2022-11-14T11:20:09.499Z,1863
2022-11-14T11:22:36.114Z,1337
2022-11-14T11:25:01.240Z,1485
2022-11-14T11:27:27.880Z,2216
2022-11-14T11:29:54.495Z,2429
2022-11-14T11:32:21.110Z,2698
2022-11-14T11:34:47.796Z,5071
2022-11-14T11:37:14.367Z,7083
2022-11-14T11:39:40.979Z,5256
2022-11-14T11:42:07.623Z,5240
2022-11-14T11:44:34.471Z,4614
2022-11-14T11:47:01.004Z,5256
2022-11-14T11:49:27.460Z,5248
2022-11-14T11:51:54.106Z,5537
2022-11-14T11:54:20.897Z,5007
2022-11-14T11:56:45.999Z,4373
2022-11-14T11:59:12.471Z,4698
2022-11-14T12:01:39.104Z,4304
2022-11-14T12:04:05.755Z,3349
2022-11-14T12:06:32.335Z,3634
2022-11-14T12:08:58.969Z,3425
2022-11-14T12:11:25.595Z,3288
2022-11-14T12:13:52.215Z,3525
2022-11-14T12:16:18.839Z,3288
2022-11-14T12:18:45.463Z,2574
2022-11-14T12:21:12.094Z,1766
2022-11-14T12:23:38.708Z,2027
2022-11-14T12:26:05.333Z,2722
2022-11-14T12:28:30.455Z,3284
2022-11-14T12:30:57.072Z,3598
2022-11-14T12:33:23.691Z,3300
2022-11-14T12:35:50.462Z,2413
2022-11-14T12:40:43.578Z,1525
2022-11-14T12:43:10.195Z,1582
2022-11-14T12:45:36.805Z,2056
2022-11-14T12:48:03.446Z,2899
2022-11-14T12:50:30.079Z,3730
2022-11-14T12:52:56.707Z,4324
2022-11-14T12:55:23.312Z,4067
2022-11-14T13:00:16.564Z,4963
2022-11-14T13:02:41.683Z,4015
2022-11-14T13:05:08.309Z,2810
2022-11-14T13:07:34.934Z,2305
2022-11-14T13:10:01.555Z,2553
2022-11-14T13:12:28.169Z,2545
2022-11-14T13:14:54.794Z,2927
2022-11-14T13:17:21.427Z,3059
2022-11-14T13:19:48.040Z,2409
2022-11-14T13:22:14.677Z,1895
2022-11-14T13:24:41.325Z,1670
2022-11-14T13:27:07.920Z,1513
2022-11-14T13:29:34.544Z,1429
2022-11-14T13:32:01.223Z,1389
2022-11-14T13:34:27.794Z,1349
2022-11-14T13:36:52.913Z,1329
2022-11-14T13:39:19.685Z,1272
2022-11-14T13:41:46.284Z,1268
2022-11-14T13:44:12.786Z,1228
2022-11-14T13:46:39.443Z,1192
2022-11-14T13:49:06.028Z,1164
2022-11-14T13:53:59.262Z,1128
2022-11-14T13:58:52.517Z,1076
2022-11-14T14:01:19.251Z,1060
2022-11-14T14:03:45.756Z,1032
2022-11-14T14:06:12.390Z,1015
2022-11-14T14:08:37.512Z,995
2022-11-14T14:11:04.141Z,971
2022-11-14T14:13:30.768Z,955
2022-11-14T14:15:57.389Z,867
2022-11-14T14:18:24.007Z,819
2022-11-14T14:23:17.262Z,791
2022-11-14T14:25:42.383Z,771
2022-11-14T14:30:35.643Z,742
2022-11-14T14:33:00.762Z,730
2022-11-14T14:35:27.387Z,714
2022-11-14T14:37:54.010Z,734
2022-11-14T14:42:47.247Z,682
2022-11-14T14:45:13.880Z,787
2022-11-14T14:47:40.501Z,762
2022-11-14T14:50:07.124Z,766
2022-11-14T14:52:33.744Z,706
2022-11-14T14:55:00.369Z,626
2022-11-14T14:57:26.997Z,594
2022-11-14T14:59:53.623Z,574
2022-11-14T15:02:20.238Z,497
2022-11-14T15:07:13.510Z,530
2022-11-14T15:09:38.757Z,493
2022-11-14T15:12:05.250Z,389
2022-11-14T15:14:30.390Z,293
2022-11-14T15:16:57.012Z,257
2022-11-14T15:19:23.621Z,240
2022-11-14T15:21:50.248Z,248
2022-11-14T15:26:43.499Z,192
2022-11-14T15:29:10.110Z,176
2022-11-14T15:31:36.737Z,152
2022-11-14T15:36:30.016Z,92
2022-11-14T15:38:56.601Z,72
2022-11-14T15:41:23.239Z,68
2022-11-14T15:43:49.847Z,56
2022-11-14T15:46:15.040Z,40
2022-11-14T15:51:08.336Z,24
2022-11-14T15:53:34.978Z,16
2022-11-14T15:56:01.481Z,12
2022-11-14T15:58:28.108Z,8
2022-11-14T16:00:54.711Z,4
2022-11-14T16:03:21.350Z,4
2022-11-14T16:05:47.982Z,0
2022-11-14T16:08:14.611Z,4
2022-11-14T16:13:07.830Z,0
2022-11-14T16:15:34.473Z,0
2022-11-14T16:20:27.716Z,0
2022-11-14T16:22:52.837Z,0
2022-11-14T16:32:39.323Z,0
2022-11-14T16:35:05.958Z,0
2022-11-14T16:39:59.200Z,0
2022-11-14T16:49:45.699Z,0
2022-11-14T16:57:05.560Z,0
2022-11-14T16:59:30.689Z,0
2022-11-14T17:04:23.936Z,0
2022-11-14T17:09:17.185Z,0
2022-11-14T17:16:37.055Z,0
2022-11-14T17:19:03.680Z,0
2022-11-14T17:21:30.300Z,0
2022-11-14T17:23:56.924Z,0
2022-11-14T17:26:23.537Z,0
2022-11-14T17:28:50.165Z,0
2022-11-14T17:33:41.919Z,0
2022-11-14T17:41:01.793Z,0
2022-11-14T17:43:28.412Z,0
2022-11-14T17:45:55.048Z,0
2022-11-14T17:48:21.651Z,0
2022-11-14T17:53:14.933Z,0
2022-11-14T17:58:08.151Z,0
2022-11-14T18:03:01.397Z,0
2022-11-14T18:07:53.252Z,0
2022-11-14T18:10:19.766Z,0
2022-11-14T18:12:46.390Z,0
2022-11-14T18:15:13.126Z,0
2022-11-14T18:17:39.636Z,0
2022-11-14T18:27:26.169Z,0
2022-11-14T18:32:19.380Z,0
2022-11-14T18:46:59.127Z,0
2022-11-14T18:56:44.129Z,0
2022-11-14T19:01:37.437Z,0
2022-11-14T19:08:57.836Z,0
2022-11-14T19:16:17.181Z,0
2022-11-14T19:26:03.597Z,0
2022-11-14T19:30:56.844Z,0
2022-11-14T19:35:48.592Z,0
2022-11-14T19:38:16.315Z,0
2022-11-14T19:45:35.105Z,0
2022-11-14T19:48:01.716Z,0
2022-11-14T20:00:14.845Z,0
2022-11-14T20:10:01.425Z,0
2022-11-14T20:14:53.131Z,0
2022-11-14T20:19:46.359Z,0
2022-11-14T20:29:32.809Z,0
2022-11-14T20:36:52.731Z,0
2022-11-14T20:44:12.581Z,0
2022-11-14T20:46:38.205Z,0
2022-11-14T20:51:31.499Z,0
2022-11-14T20:53:57.640Z,0
2022-11-14T20:58:50.796Z,0
2022-11-14T21:03:44.136Z,0
2022-11-14T21:13:30.540Z,0
2022-11-14T21:15:57.700Z,0
2022-11-14T21:28:10.386Z,0
2022-11-14T21:35:29.405Z,0
2022-11-14T21:42:48.515Z,0
2022-11-14T21:52:35.014Z,0
2022-11-14T21:57:28.256Z,0
2022-11-14T21:59:55.237Z,0
2022-11-14T22:02:21.560Z,0
2022-11-14T22:04:48.519Z,0
2022-11-14T22:07:14.751Z,0
2022-11-14T22:12:06.549Z,0
2022-11-14T22:26:46.242Z,0
2022-11-14T22:38:59.444Z,0
2022-11-14T22:41:24.535Z,0
2022-11-14T22:46:17.762Z,0
2022-11-14T22:48:44.535Z,0
2022-11-14T22:56:04.228Z,0
2022-11-14T23:00:57.454Z,0
2022-11-14T23:03:24.087Z,0
2022-11-14T23:05:50.752Z,0
2022-11-14T23:08:17.338Z,0
2022-11-14T23:10:44.005Z,0
2022-11-14T23:15:35.702Z,0
2022-11-14T23:25:22.209Z,0
2022-11-14T23:37:34.028Z,0
2022-11-14T23:40:00.457Z,0
2022-11-14T23:47:18.833Z,0
2022-11-14T23:49:43.978Z,0
2022-11-14T23:52:10.586Z,0
2022-11-14T23:54:37.211Z,0
2022-11-14T23:57:03.863Z,0
2022-11-14T23:59:30.551Z,0
